sensor_id;sensor_type;location;lat;lon;timestamp;temperature;humidity
3678;DHT22;1855;50.934;6.958;2023-02-28T00:00:37;0.30;90.60
3678;DHT22;1855;50.934;6.958;2023-02-28T00:03:04;0.20;90.80
3678;DHT22;1855;50.934;6.958;2023-02-28T00:05:31;0.30;90.00
3678;DHT22;1855;50.934;6.958;2023-02-28T00:07:58;0.50;89.20
3678;DHT22;1855;50.934;6.958;2023-02-28T00:10:28;0.50;88.90
3678;DHT22;1855;50.934;6.958;2023-02-28T00:12:58;0.50;88.40
3678;DHT22;1855;50.934;6.958;2023-02-28T00:15:27;0.50;87.20
3678;DHT22;1855;50.934;6.958;2023-02-28T00:17:54;0.50;87.50
3678;DHT22;1855;50.934;6.958;2023-02-28T00:20:21;0.30;88.10
3678;DHT22;1855;50.934;6.958;2023-02-28T00:22:50;0.30;89.20
3678;DHT22;1855;50.934;6.958;2023-02-28T00:25:18;0.20;90.30
3678;DHT22;1855;50.934;6.958;2023-02-28T00:27:46;0.20;90.10
3678;DHT22;1855;50.934;6.958;2023-02-28T00:30:15;0.30;90.70
3678;DHT22;1855;50.934;6.958;2023-02-28T00:32:43;0.30;89.60
3678;DHT22;1855;50.934;6.958;2023-02-28T00:35:11;0.20;90.00
3678;DHT22;1855;50.934;6.958;2023-02-28T00:37:37;0.20;90.90
3678;DHT22;1855;50.934;6.958;2023-02-28T00:40:06;0.20;90.80
3678;DHT22;1855;50.934;6.958;2023-02-28T00:42:33;0.20;90.30
3678;DHT22;1855;50.934;6.958;2023-02-28T00:45:00;0.20;90.50
3678;DHT22;1855;50.934;6.958;2023-02-28T00:47:29;0.20;90.30
3678;DHT22;1855;50.934;6.958;2023-02-28T00:49:57;0.20;90.60
3678;DHT22;1855;50.934;6.958;2023-02-28T00:52:23;0.20;90.30
3678;DHT22;1855;50.934;6.958;2023-02-28T00:54:50;0.20;90.60
3678;DHT22;1855;50.934;6.958;2023-02-28T00:57:17;0.20;90.40
3678;DHT22;1855;50.934;6.958;2023-02-28T00:59:44;0.20;90.60
3678;DHT22;1855;50.934;6.958;2023-02-28T01:02:11;0.20;90.10
3678;DHT22;1855;50.934;6.958;2023-02-28T01:04:37;0.20;90.40
3678;DHT22;1855;50.934;6.958;2023-02-28T01:07:05;0.10;90.50
3678;DHT22;1855;50.934;6.958;2023-02-28T01:09:32;0.10;90.70
3678;DHT22;1855;50.934;6.958;2023-02-28T01:11:59;0.00;90.70
3678;DHT22;1855;50.934;6.958;2023-02-28T01:14:25;0.00;90.90
3678;DHT22;1855;50.934;6.958;2023-02-28T01:16:52;-0.10;91.30
3678;DHT22;1855;50.934;6.958;2023-02-28T01:19:19;0.00;91.50
3678;DHT22;1855;50.934;6.958;2023-02-28T01:21:46;0.00;91.30
3678;DHT22;1855;50.934;6.958;2023-02-28T01:24:14;-0.10;91.20
3678;DHT22;1855;50.934;6.958;2023-02-28T01:26:41;0.00;91.40
3678;DHT22;1855;50.934;6.958;2023-02-28T01:29:07;-0.10;91.30
3678;DHT22;1855;50.934;6.958;2023-02-28T01:31:34;-0.10;91.20
3678;DHT22;1855;50.934;6.958;2023-02-28T01:34:01;-0.20;91.80
3678;DHT22;1855;50.934;6.958;2023-02-28T01:36:29;-0.20;91.60
3678;DHT22;1855;50.934;6.958;2023-02-28T01:38:55;-0.20;91.70
3678;DHT22;1855;50.934;6.958;2023-02-28T01:41:25;-0.20;91.80
3678;DHT22;1855;50.934;6.958;2023-02-28T01:43:59;-0.20;91.90
3678;DHT22;1855;50.934;6.958;2023-02-28T01:46:29;-0.10;91.70
3678;DHT22;1855;50.934;6.958;2023-02-28T01:49:00;-0.20;92.10
3678;DHT22;1855;50.934;6.958;2023-02-28T01:51:31;-0.20;91.80
3678;DHT22;1855;50.934;6.958;2023-02-28T01:54:01;-0.20;92.00
3678;DHT22;1855;50.934;6.958;2023-02-28T01:56:33;-0.20;91.70
3678;DHT22;1855;50.934;6.958;2023-02-28T01:59:02;-0.20;91.70
3678;DHT22;1855;50.934;6.958;2023-02-28T02:01:30;-0.30;91.60
3678;DHT22;1855;50.934;6.958;2023-02-28T02:03:59;-0.30;92.20
3678;DHT22;1855;50.934;6.958;2023-02-28T02:06:29;-0.30;91.70
3678;DHT22;1855;50.934;6.958;2023-02-28T02:08:57;-0.30;92.10
3678;DHT22;1855;50.934;6.958;2023-02-28T02:11:24;-0.40;92.00
3678;DHT22;1855;50.934;6.958;2023-02-28T02:20:04;-0.40;92.50
3678;DHT22;1855;50.934;6.958;2023-02-28T02:23:06;-0.40;92.30
3678;DHT22;1855;50.934;6.958;2023-02-28T02:25:40;-0.50;92.20
3678;DHT22;1855;50.934;6.958;2023-02-28T02:28:30;-0.50;92.50
3678;DHT22;1855;50.934;6.958;2023-02-28T02:31:20;-0.50;92.30
3678;DHT22;1855;50.934;6.958;2023-02-28T02:34:25;-0.50;92.40
3678;DHT22;1855;50.934;6.958;2023-02-28T02:36:58;-0.50;92.30
3678;DHT22;1855;50.934;6.958;2023-02-28T02:39:33;-0.50;92.00
3678;DHT22;1855;50.934;6.958;2023-02-28T02:42:11;-0.50;92.20
3678;DHT22;1855;50.934;6.958;2023-02-28T02:44:45;-0.50;92.30
3678;DHT22;1855;50.934;6.958;2023-02-28T02:47:16;-0.50;91.90
3678;DHT22;1855;50.934;6.958;2023-02-28T02:49:48;-0.60;91.80
3678;DHT22;1855;50.934;6.958;2023-02-28T02:52:20;-0.60;91.60
3678;DHT22;1855;50.934;6.958;2023-02-28T02:54:49;-0.50;91.60
3678;DHT22;1855;50.934;6.958;2023-02-28T02:57:23;-0.50;91.00
3678;DHT22;1855;50.934;6.958;2023-02-28T02:59:52;-0.60;90.90
3678;DHT22;1855;50.934;6.958;2023-02-28T03:02:22;-0.60;91.20
3678;DHT22;1855;50.934;6.958;2023-02-28T03:04:53;-0.70;90.30
3678;DHT22;1855;50.934;6.958;2023-02-28T03:07:25;-0.70;89.90
3678;DHT22;1855;50.934;6.958;2023-02-28T03:09:53;-0.70;89.20
3678;DHT22;1855;50.934;6.958;2023-02-28T03:12:20;-0.70;88.20
3678;DHT22;1855;50.934;6.958;2023-02-28T03:14:56;-0.70;88.80
3678;DHT22;1855;50.934;6.958;2023-02-28T03:17:39;-0.80;88.30
3678;DHT22;1855;50.934;6.958;2023-02-28T03:20:17;-0.80;88.40
3678;DHT22;1855;50.934;6.958;2023-02-28T03:22:55;-0.80;88.10
3678;DHT22;1855;50.934;6.958;2023-02-28T03:25:33;-0.80;88.10
3678;DHT22;1855;50.934;6.958;2023-02-28T03:28:08;-0.80;87.80
3678;DHT22;1855;50.934;6.958;2023-02-28T03:30:42;-0.80;86.50
3678;DHT22;1855;50.934;6.958;2023-02-28T03:33:15;-0.80;86.40
3678;DHT22;1855;50.934;6.958;2023-02-28T03:35:48;-0.80;86.50
3678;DHT22;1855;50.934;6.958;2023-02-28T03:38:20;-0.70;86.00
3678;DHT22;1855;50.934;6.958;2023-02-28T03:40:50;-0.80;84.60
3678;DHT22;1855;50.934;6.958;2023-02-28T03:43:22;-0.70;84.70
3678;DHT22;1855;50.934;6.958;2023-02-28T03:45:51;-0.60;85.40
3678;DHT22;1855;50.934;6.958;2023-02-28T03:48:22;-0.70;85.50
3678;DHT22;1855;50.934;6.958;2023-02-28T03:50:54;-0.70;83.90
3678;DHT22;1855;50.934;6.958;2023-02-28T03:53:26;-0.60;83.70
3678;DHT22;1855;50.934;6.958;2023-02-28T03:55:56;-0.60;83.60
3678;DHT22;1855;50.934;6.958;2023-02-28T03:58:29;-0.70;82.80
3678;DHT22;1855;50.934;6.958;2023-02-28T04:01:00;-0.80;83.80
3678;DHT22;1855;50.934;6.958;2023-02-28T04:03:34;-0.80;83.90
3678;DHT22;1855;50.934;6.958;2023-02-28T04:06:03;-0.80;84.30
3678;DHT22;1855;50.934;6.958;2023-02-28T04:08:30;-0.80;84.70
3678;DHT22;1855;50.934;6.958;2023-02-28T04:11:03;-0.70;84.50
3678;DHT22;1855;50.934;6.958;2023-02-28T04:13:31;-0.80;85.90
3678;DHT22;1855;50.934;6.958;2023-02-28T04:15:58;-0.90;86.90
3678;DHT22;1855;50.934;6.958;2023-02-28T04:18:24;-0.90;87.10
3678;DHT22;1855;50.934;6.958;2023-02-28T04:20:51;-1.00;88.40
3678;DHT22;1855;50.934;6.958;2023-02-28T04:23:19;-1.00;89.40
3678;DHT22;1855;50.934;6.958;2023-02-28T04:25:46;-0.90;89.50
3678;DHT22;1855;50.934;6.958;2023-02-28T04:28:13;-0.90;89.80
3678;DHT22;1855;50.934;6.958;2023-02-28T04:30:39;-0.90;89.60
3678;DHT22;1855;50.934;6.958;2023-02-28T04:33:06;-0.80;90.10
3678;DHT22;1855;50.934;6.958;2023-02-28T04:35:33;-0.90;90.40
3678;DHT22;1855;50.934;6.958;2023-02-28T04:38:00;-0.80;90.60
3678;DHT22;1855;50.934;6.958;2023-02-28T04:40:28;-0.80;90.60
3678;DHT22;1855;50.934;6.958;2023-02-28T04:42:54;-0.90;90.60
3678;DHT22;1855;50.934;6.958;2023-02-28T04:45:21;-0.80;90.20
3678;DHT22;1855;50.934;6.958;2023-02-28T04:47:48;-0.90;90.60
3678;DHT22;1855;50.934;6.958;2023-02-28T04:50:15;-0.90;90.50
3678;DHT22;1855;50.934;6.958;2023-02-28T04:52:42;-0.90;91.40
3678;DHT22;1855;50.934;6.958;2023-02-28T04:55:09;-0.90;91.00
3678;DHT22;1855;50.934;6.958;2023-02-28T04:57:37;-1.00;91.20
3678;DHT22;1855;50.934;6.958;2023-02-28T05:00:04;-1.00;90.90
3678;DHT22;1855;50.934;6.958;2023-02-28T05:02:37;-1.10;91.20
3678;DHT22;1855;50.934;6.958;2023-02-28T05:05:04;-1.10;91.50
3678;DHT22;1855;50.934;6.958;2023-02-28T05:07:30;-1.10;91.40
3678;DHT22;1855;50.934;6.958;2023-02-28T05:09:57;-1.20;91.60
3678;DHT22;1855;50.934;6.958;2023-02-28T05:12:24;-1.20;91.30
3678;DHT22;1855;50.934;6.958;2023-02-28T05:14:52;-1.10;91.40
3678;DHT22;1855;50.934;6.958;2023-02-28T05:17:19;-1.00;90.40
3678;DHT22;1855;50.934;6.958;2023-02-28T05:19:45;-1.00;90.30
3678;DHT22;1855;50.934;6.958;2023-02-28T05:22:14;-1.00;90.10
3678;DHT22;1855;50.934;6.958;2023-02-28T05:24:41;-1.00;90.10
3678;DHT22;1855;50.934;6.958;2023-02-28T05:27:09;-1.00;89.30
3678;DHT22;1855;50.934;6.958;2023-02-28T05:29:36;-0.90;89.10
3678;DHT22;1855;50.934;6.958;2023-02-28T05:32:09;-0.90;87.90
3678;DHT22;1855;50.934;6.958;2023-02-28T05:34:37;-0.90;87.50
3678;DHT22;1855;50.934;6.958;2023-02-28T05:37:03;-0.90;87.10
3678;DHT22;1855;50.934;6.958;2023-02-28T05:39:30;-0.90;86.70
3678;DHT22;1855;50.934;6.958;2023-02-28T05:41:57;-1.00;86.80
3678;DHT22;1855;50.934;6.958;2023-02-28T05:44:24;-1.00;87.20
3678;DHT22;1855;50.934;6.958;2023-02-28T05:46:50;-1.00;87.80
3678;DHT22;1855;50.934;6.958;2023-02-28T05:49:18;-1.00;86.90
3678;DHT22;1855;50.934;6.958;2023-02-28T05:51:45;-1.00;85.70
3678;DHT22;1855;50.934;6.958;2023-02-28T05:54:12;-1.00;85.10
3678;DHT22;1855;50.934;6.958;2023-02-28T05:56:39;-1.00;84.80
3678;DHT22;1855;50.934;6.958;2023-02-28T05:59:09;-1.00;84.70
3678;DHT22;1855;50.934;6.958;2023-02-28T06:01:37;-1.00;84.70
3678;DHT22;1855;50.934;6.958;2023-02-28T06:04:07;-1.10;84.30
3678;DHT22;1855;50.934;6.958;2023-02-28T06:06:36;-1.10;85.20
3678;DHT22;1855;50.934;6.958;2023-02-28T06:09:03;-1.20;86.00
3678;DHT22;1855;50.934;6.958;2023-02-28T06:11:30;-1.20;86.50
3678;DHT22;1855;50.934;6.958;2023-02-28T06:13:58;-1.20;86.40
3678;DHT22;1855;50.934;6.958;2023-02-28T06:16:26;-1.10;86.20
3678;DHT22;1855;50.934;6.958;2023-02-28T06:18:54;-1.10;85.00
3678;DHT22;1855;50.934;6.958;2023-02-28T06:21:22;-1.10;85.00
3678;DHT22;1855;50.934;6.958;2023-02-28T06:23:50;-1.20;84.90
3678;DHT22;1855;50.934;6.958;2023-02-28T06:26:17;-1.20;84.60
3678;DHT22;1855;50.934;6.958;2023-02-28T06:28:43;-1.30;84.70
3678;DHT22;1855;50.934;6.958;2023-02-28T06:31:12;-1.20;85.40
3678;DHT22;1855;50.934;6.958;2023-02-28T06:33:40;-1.20;85.10
3678;DHT22;1855;50.934;6.958;2023-02-28T06:36:09;-1.20;85.20
3678;DHT22;1855;50.934;6.958;2023-02-28T06:38:36;-1.10;83.90
3678;DHT22;1855;50.934;6.958;2023-02-28T06:41:05;-1.00;82.70
3678;DHT22;1855;50.934;6.958;2023-02-28T06:43:34;-1.00;82.50
3678;DHT22;1855;50.934;6.958;2023-02-28T06:46:03;-0.90;82.10
3678;DHT22;1855;50.934;6.958;2023-02-28T06:48:31;-0.90;81.30
3678;DHT22;1855;50.934;6.958;2023-02-28T06:51:08;-0.80;80.40
3678;DHT22;1855;50.934;6.958;2023-02-28T06:53:36;-0.80;80.20
3678;DHT22;1855;50.934;6.958;2023-02-28T06:56:06;-0.70;78.90
3678;DHT22;1855;50.934;6.958;2023-02-28T06:58:33;-0.60;78.30
3678;DHT22;1855;50.934;6.958;2023-02-28T07:01:00;-0.50;78.30
3678;DHT22;1855;50.934;6.958;2023-02-28T07:03:27;-0.50;78.50
3678;DHT22;1855;50.934;6.958;2023-02-28T07:05:54;-0.50;78.50
3678;DHT22;1855;50.934;6.958;2023-02-28T07:08:21;-0.40;77.50
3678;DHT22;1855;50.934;6.958;2023-02-28T07:10:51;-0.40;77.30
3678;DHT22;1855;50.934;6.958;2023-02-28T07:13:19;-0.40;77.30
3678;DHT22;1855;50.934;6.958;2023-02-28T07:15:53;-0.40;76.80
3678;DHT22;1855;50.934;6.958;2023-02-28T07:18:20;-0.30;76.70
3678;DHT22;1855;50.934;6.958;2023-02-28T07:20:47;-0.20;76.00
3678;DHT22;1855;50.934;6.958;2023-02-28T07:23:13;-0.20;75.20
3678;DHT22;1855;50.934;6.958;2023-02-28T07:25:40;-0.10;74.70
3678;DHT22;1855;50.934;6.958;2023-02-28T07:28:07;-0.10;73.90
3678;DHT22;1855;50.934;6.958;2023-02-28T07:30:35;0.00;73.20
3678;DHT22;1855;50.934;6.958;2023-02-28T07:33:02;0.10;71.30
3678;DHT22;1855;50.934;6.958;2023-02-28T07:35:29;0.20;71.40
3678;DHT22;1855;50.934;6.958;2023-02-28T07:37:57;0.30;70.40
3678;DHT22;1855;50.934;6.958;2023-02-28T07:40:24;0.40;69.50
3678;DHT22;1855;50.934;6.958;2023-02-28T07:42:51;0.50;69.20
3678;DHT22;1855;50.934;6.958;2023-02-28T07:45:18;0.60;68.50
3678;DHT22;1855;50.934;6.958;2023-02-28T07:47:46;0.70;67.90
3678;DHT22;1855;50.934;6.958;2023-02-28T07:50:15;0.90;67.50
3678;DHT22;1855;50.934;6.958;2023-02-28T07:52:43;1.00;65.70
3678;DHT22;1855;50.934;6.958;2023-02-28T07:55:10;1.10;65.10
3678;DHT22;1855;50.934;6.958;2023-02-28T07:57:37;1.30;65.20
3678;DHT22;1855;50.934;6.958;2023-02-28T08:00:04;1.50;64.10
3678;DHT22;1855;50.934;6.958;2023-02-28T08:02:31;1.70;62.90
3678;DHT22;1855;50.934;6.958;2023-02-28T08:05:00;1.80;61.70
3678;DHT22;1855;50.934;6.958;2023-02-28T08:07:27;2.00;59.80
3678;DHT22;1855;50.934;6.958;2023-02-28T08:09:54;2.20;59.50
3678;DHT22;1855;50.934;6.958;2023-02-28T08:12:21;2.30;58.80
3678;DHT22;1855;50.934;6.958;2023-02-28T08:14:47;2.50;57.30
3678;DHT22;1855;50.934;6.958;2023-02-28T08:17:14;2.70;56.20
3678;DHT22;1855;50.934;6.958;2023-02-28T08:19:41;2.80;55.40
3678;DHT22;1855;50.934;6.958;2023-02-28T08:22:09;3.00;53.40
3678;DHT22;1855;50.934;6.958;2023-02-28T08:24:36;3.10;52.70
3678;DHT22;1855;50.934;6.958;2023-02-28T08:27:02;3.30;52.20
3678;DHT22;1855;50.934;6.958;2023-02-28T08:29:29;3.50;52.40
3678;DHT22;1855;50.934;6.958;2023-02-28T08:31:56;3.60;52.10
3678;DHT22;1855;50.934;6.958;2023-02-28T08:34:24;3.70;51.30
3678;DHT22;1855;50.934;6.958;2023-02-28T08:36:51;3.90;50.60
3678;DHT22;1855;50.934;6.958;2023-02-28T08:39:19;4.10;50.10
3678;DHT22;1855;50.934;6.958;2023-02-28T08:41:46;4.30;48.00
3678;DHT22;1855;50.934;6.958;2023-02-28T08:44:13;4.40;45.60
3678;DHT22;1855;50.934;6.958;2023-02-28T08:46:39;4.50;47.10
3678;DHT22;1855;50.934;6.958;2023-02-28T08:49:06;4.60;45.80
3678;DHT22;1855;50.934;6.958;2023-02-28T08:51:35;4.70;45.00
3678;DHT22;1855;50.934;6.958;2023-02-28T08:54:01;4.80;44.10
3678;DHT22;1855;50.934;6.958;2023-02-28T08:56:29;4.80;42.80
3678;DHT22;1855;50.934;6.958;2023-02-28T08:58:57;4.90;44.00
3678;DHT22;1855;50.934;6.958;2023-02-28T09:01:25;5.10;43.90
3678;DHT22;1855;50.934;6.958;2023-02-28T09:03:54;5.20;43.20
3678;DHT22;1855;50.934;6.958;2023-02-28T09:06:23;5.40;42.70
3678;DHT22;1855;50.934;6.958;2023-02-28T09:08:50;5.60;43.00
3678;DHT22;1855;50.934;6.958;2023-02-28T09:11:17;5.80;41.30
3678;DHT22;1855;50.934;6.958;2023-02-28T09:13:46;5.90;40.50
3678;DHT22;1855;50.934;6.958;2023-02-28T09:16:14;5.90;39.90
3678;DHT22;1855;50.934;6.958;2023-02-28T09:18:41;6.00;40.00
3678;DHT22;1855;50.934;6.958;2023-02-28T09:21:12;6.10;38.90
3678;DHT22;1855;50.934;6.958;2023-02-28T09:23:40;6.10;39.30
3678;DHT22;1855;50.934;6.958;2023-02-28T09:26:07;6.30;39.00
3678;DHT22;1855;50.934;6.958;2023-02-28T09:28:34;6.40;39.40
3678;DHT22;1855;50.934;6.958;2023-02-28T09:31:02;6.60;37.90
3678;DHT22;1855;50.934;6.958;2023-02-28T09:33:30;6.70;37.80
3678;DHT22;1855;50.934;6.958;2023-02-28T09:35:59;6.80;37.00
3678;DHT22;1855;50.934;6.958;2023-02-28T09:38:26;6.80;38.20
3678;DHT22;1855;50.934;6.958;2023-02-28T09:40:55;6.80;36.80
3678;DHT22;1855;50.934;6.958;2023-02-28T09:43:25;6.90;37.40
3678;DHT22;1855;50.934;6.958;2023-02-28T09:45:57;7.00;37.10
3678;DHT22;1855;50.934;6.958;2023-02-28T09:48:31;7.10;37.30
3678;DHT22;1855;50.934;6.958;2023-02-28T09:51:03;7.20;35.80
3678;DHT22;1855;50.934;6.958;2023-02-28T09:53:32;7.20;35.80
3678;DHT22;1855;50.934;6.958;2023-02-28T09:56:02;7.20;35.10
3678;DHT22;1855;50.934;6.958;2023-02-28T09:58:34;7.20;35.90
3678;DHT22;1855;50.934;6.958;2023-02-28T10:01:09;7.40;36.50
3678;DHT22;1855;50.934;6.958;2023-02-28T10:03:44;7.70;35.70
3678;DHT22;1855;50.934;6.958;2023-02-28T10:06:17;7.90;36.20
3678;DHT22;1855;50.934;6.958;2023-02-28T10:08:52;7.90;35.20
3678;DHT22;1855;50.934;6.958;2023-02-28T10:11:23;8.10;35.00
3678;DHT22;1855;50.934;6.958;2023-02-28T10:13:54;8.10;34.10
3678;DHT22;1855;50.934;6.958;2023-02-28T10:16:31;8.30;34.40
3678;DHT22;1855;50.934;6.958;2023-02-28T10:19:04;8.40;34.70
3678;DHT22;1855;50.934;6.958;2023-02-28T10:21:35;8.70;34.60
3678;DHT22;1855;50.934;6.958;2023-02-28T10:24:07;8.90;34.10
3678;DHT22;1855;50.934;6.958;2023-02-28T10:26:37;9.10;33.50
3678;DHT22;1855;50.934;6.958;2023-02-28T10:29:04;9.20;33.80
3678;DHT22;1855;50.934;6.958;2023-02-28T10:31:31;9.30;33.60
3678;DHT22;1855;50.934;6.958;2023-02-28T10:33:57;9.50;33.60
3678;DHT22;1855;50.934;6.958;2023-02-28T10:36:26;9.60;33.70
3678;DHT22;1855;50.934;6.958;2023-02-28T10:38:53;9.80;32.40
3678;DHT22;1855;50.934;6.958;2023-02-28T10:41:28;9.80;33.50
3678;DHT22;1855;50.934;6.958;2023-02-28T10:44:14;9.70;31.90
3678;DHT22;1855;50.934;6.958;2023-02-28T10:46:42;9.30;32.70
3678;DHT22;1855;50.934;6.958;2023-02-28T10:49:14;9.10;33.20
3678;DHT22;1855;50.934;6.958;2023-02-28T10:51:42;9.20;33.80
3678;DHT22;1855;50.934;6.958;2023-02-28T10:54:16;9.30;33.20
3678;DHT22;1855;50.934;6.958;2023-02-28T10:56:44;9.70;33.00
3678;DHT22;1855;50.934;6.958;2023-02-28T10:59:28;10.00;32.90
3678;DHT22;1855;50.934;6.958;2023-02-28T11:01:56;10.10;31.90
3678;DHT22;1855;50.934;6.958;2023-02-28T11:04:34;10.10;32.10
3678;DHT22;1855;50.934;6.958;2023-02-28T11:07:06;10.30;31.90
3678;DHT22;1855;50.934;6.958;2023-02-28T11:09:45;10.40;32.20
3678;DHT22;1855;50.934;6.958;2023-02-28T11:12:21;10.60;31.70
3678;DHT22;1855;50.934;6.958;2023-02-28T11:14:49;10.80;30.50
3678;DHT22;1855;50.934;6.958;2023-02-28T11:17:21;11.00;30.20
3678;DHT22;1855;50.934;6.958;2023-02-28T11:19:51;10.80;30.00
3678;DHT22;1855;50.934;6.958;2023-02-28T11:22:21;10.80;30.00
3678;DHT22;1855;50.934;6.958;2023-02-28T11:24:51;11.10;30.10
3678;DHT22;1855;50.934;6.958;2023-02-28T11:27:43;11.20;29.50
3678;DHT22;1855;50.934;6.958;2023-02-28T11:30:28;11.00;29.50
3678;DHT22;1855;50.934;6.958;2023-02-28T11:32:55;10.70;30.40
3678;DHT22;1855;50.934;6.958;2023-02-28T11:35:26;10.70;30.80
3678;DHT22;1855;50.934;6.958;2023-02-28T11:37:55;10.90;30.70
3678;DHT22;1855;50.934;6.958;2023-02-28T11:40:28;11.30;29.50
3678;DHT22;1855;50.934;6.958;2023-02-28T11:43:03;11.80;30.50
3678;DHT22;1855;50.934;6.958;2023-02-28T11:45:49;12.00;29.90
3678;DHT22;1855;50.934;6.958;2023-02-28T11:48:23;12.10;30.00
3678;DHT22;1855;50.934;6.958;2023-02-28T11:51:00;12.00;29.80
3678;DHT22;1855;50.934;6.958;2023-02-28T11:53:44;11.80;29.80
3678;DHT22;1855;50.934;6.958;2023-02-28T11:56:22;12.10;29.50
3678;DHT22;1855;50.934;6.958;2023-02-28T11:58:57;12.50;29.10
3678;DHT22;1855;50.934;6.958;2023-02-28T12:01:37;13.00;28.60
3678;DHT22;1855;50.934;6.958;2023-02-28T12:04:22;13.40;27.30
3678;DHT22;1855;50.934;6.958;2023-02-28T12:06:55;13.70;27.60
3678;DHT22;1855;50.934;6.958;2023-02-28T12:09:40;13.90;27.40
3678;DHT22;1855;50.934;6.958;2023-02-28T12:12:19;14.40;27.10
3678;DHT22;1855;50.934;6.958;2023-02-28T12:14:57;14.80;27.20
3678;DHT22;1855;50.934;6.958;2023-02-28T12:17:38;15.40;26.80
3678;DHT22;1855;50.934;6.958;2023-02-28T12:20:17;15.50;25.10
3678;DHT22;1855;50.934;6.958;2023-02-28T12:22:54;15.80;26.20
3678;DHT22;1855;50.934;6.958;2023-02-28T12:28:26;17.00;25.20
3678;DHT22;1855;50.934;6.958;2023-02-28T12:30:58;17.70;25.40
3678;DHT22;1855;50.934;6.958;2023-02-28T12:33:31;18.20;25.00
3678;DHT22;1855;50.934;6.958;2023-02-28T12:36:03;18.90;23.60
3678;DHT22;1855;50.934;6.958;2023-02-28T12:38:37;19.40;24.10
3678;DHT22;1855;50.934;6.958;2023-02-28T12:41:10;19.70;23.20
3678;DHT22;1855;50.934;6.958;2023-02-28T12:43:43;20.30;23.60
3678;DHT22;1855;50.934;6.958;2023-02-28T12:46:14;20.40;23.80
3678;DHT22;1855;50.934;6.958;2023-02-28T12:48:46;20.10;23.10
3678;DHT22;1855;50.934;6.958;2023-02-28T12:51:14;20.40;22.70
3678;DHT22;1855;50.934;6.958;2023-02-28T12:53:54;20.10;22.50
3678;DHT22;1855;50.934;6.958;2023-02-28T12:56:33;20.60;22.30
3678;DHT22;1855;50.934;6.958;2023-02-28T12:59:04;21.20;22.30
3678;DHT22;1855;50.934;6.958;2023-02-28T13:02:06;21.00;21.80
3678;DHT22;1855;50.934;6.958;2023-02-28T13:10:53;20.90;21.70
3678;DHT22;1855;50.934;6.958;2023-02-28T13:13:23;21.00;21.80
3678;DHT22;1855;50.934;6.958;2023-02-28T13:16:03;20.70;21.80
3678;DHT22;1855;50.934;6.958;2023-02-28T13:18:34;21.40;21.50
3678;DHT22;1855;50.934;6.958;2023-02-28T13:21:04;21.20;21.70
3678;DHT22;1855;50.934;6.958;2023-02-28T13:23:58;21.00;21.70
3678;DHT22;1855;50.934;6.958;2023-02-28T13:29:31;21.60;21.30
3678;DHT22;1855;50.934;6.958;2023-02-28T13:38:32;19.40;21.90
3678;DHT22;1855;50.934;6.958;2023-02-28T13:44:02;20.40;21.90
3678;DHT22;1855;50.934;6.958;2023-02-28T13:46:31;19.90;21.90
3678;DHT22;1855;50.934;6.958;2023-02-28T13:49:18;19.20;22.30
3678;DHT22;1855;50.934;6.958;2023-02-28T13:51:47;19.80;21.80
3678;DHT22;1855;50.934;6.958;2023-02-28T13:54:28;18.90;22.20
3678;DHT22;1855;50.934;6.958;2023-02-28T13:57:07;19.00;22.10
3678;DHT22;1855;50.934;6.958;2023-02-28T13:59:46;19.40;22.10
3678;DHT22;1855;50.934;6.958;2023-02-28T14:02:36;19.80;21.90
3678;DHT22;1855;50.934;6.958;2023-02-28T14:05:13;20.60;21.30
3678;DHT22;1855;50.934;6.958;2023-02-28T14:07:45;20.90;21.50
3678;DHT22;1855;50.934;6.958;2023-02-28T14:10:23;19.80;21.50
3678;DHT22;1855;50.934;6.958;2023-02-28T14:15:44;20.50;21.20
3678;DHT22;1855;50.934;6.958;2023-02-28T14:18:29;20.20;21.30
3678;DHT22;1855;50.934;6.958;2023-02-28T14:21:11;19.80;21.90
3678;DHT22;1855;50.934;6.958;2023-02-28T14:23:50;19.30;21.70
3678;DHT22;1855;50.934;6.958;2023-02-28T14:29:36;20.60;21.60
3678;DHT22;1855;50.934;6.958;2023-02-28T14:32:15;19.60;21.40
3678;DHT22;1855;50.934;6.958;2023-02-28T14:34:54;18.60;22.10
3678;DHT22;1855;50.934;6.958;2023-02-28T14:37:26;18.40;22.60
3678;DHT22;1855;50.934;6.958;2023-02-28T14:39:54;17.40;22.90
3678;DHT22;1855;50.934;6.958;2023-02-28T14:42:30;17.90;23.30
3678;DHT22;1855;50.934;6.958;2023-02-28T14:44:58;17.90;23.10
3678;DHT22;1855;50.934;6.958;2023-02-28T14:47:28;17.80;23.00
3678;DHT22;1855;50.934;6.958;2023-02-28T14:49:57;18.00;23.30
3678;DHT22;1855;50.934;6.958;2023-02-28T14:52:26;18.70;22.90
3678;DHT22;1855;50.934;6.958;2023-02-28T14:54:56;19.50;22.00
3678;DHT22;1855;50.934;6.958;2023-02-28T14:57:25;18.60;22.50
3678;DHT22;1855;50.934;6.958;2023-02-28T15:00:00;19.00;22.50
3678;DHT22;1855;50.934;6.958;2023-02-28T15:02:34;19.90;21.60
3678;DHT22;1855;50.934;6.958;2023-02-28T15:08:10;19.40;22.00
3678;DHT22;1855;50.934;6.958;2023-02-28T15:10:37;19.30;21.70
3678;DHT22;1855;50.934;6.958;2023-02-28T15:13:07;19.30;21.60
3678;DHT22;1855;50.934;6.958;2023-02-28T15:15:43;19.80;21.40
3678;DHT22;1855;50.934;6.958;2023-02-28T15:18:16;19.30;21.90
3678;DHT22;1855;50.934;6.958;2023-02-28T15:20:46;19.20;22.10
3678;DHT22;1855;50.934;6.958;2023-02-28T15:23:14;18.90;22.20
3678;DHT22;1855;50.934;6.958;2023-02-28T15:25:42;18.60;22.40
3678;DHT22;1855;50.934;6.958;2023-02-28T15:28:14;18.10;22.20
3678;DHT22;1855;50.934;6.958;2023-02-28T15:30:55;17.80;22.90
3678;DHT22;1855;50.934;6.958;2023-02-28T15:33:23;17.50;23.10
3678;DHT22;1855;50.934;6.958;2023-02-28T15:36:04;17.80;23.30
3678;DHT22;1855;50.934;6.958;2023-02-28T15:38:34;18.10;22.80
3678;DHT22;1855;50.934;6.958;2023-02-28T15:41:01;17.90;23.00
3678;DHT22;1855;50.934;6.958;2023-02-28T15:43:29;17.40;23.40
3678;DHT22;1855;50.934;6.958;2023-02-28T15:45:59;17.10;23.40
3678;DHT22;1855;50.934;6.958;2023-02-28T15:48:28;17.50;23.20
3678;DHT22;1855;50.934;6.958;2023-02-28T15:51:02;17.20;23.50
3678;DHT22;1855;50.934;6.958;2023-02-28T15:53:31;17.10;23.50
3678;DHT22;1855;50.934;6.958;2023-02-28T15:56:01;17.50;23.50
3678;DHT22;1855;50.934;6.958;2023-02-28T15:58:29;16.80;23.70
3678;DHT22;1855;50.934;6.958;2023-02-28T16:01:17;16.60;23.80
3678;DHT22;1855;50.934;6.958;2023-02-28T16:03:47;16.20;24.30
3678;DHT22;1855;50.934;6.958;2023-02-28T16:06:32;16.20;24.30
3678;DHT22;1855;50.934;6.958;2023-02-28T16:09:00;16.50;24.40
3678;DHT22;1855;50.934;6.958;2023-02-28T16:11:27;16.00;24.70
3678;DHT22;1855;50.934;6.958;2023-02-28T16:13:54;15.80;25.10
3678;DHT22;1855;50.934;6.958;2023-02-28T16:16:22;15.80;25.20
3678;DHT22;1855;50.934;6.958;2023-02-28T16:18:51;15.60;25.10
3678;DHT22;1855;50.934;6.958;2023-02-28T16:21:18;15.90;25.20
3678;DHT22;1855;50.934;6.958;2023-02-28T16:23:46;15.50;25.70
3678;DHT22;1855;50.934;6.958;2023-02-28T16:26:19;15.40;26.70
3678;DHT22;1855;50.934;6.958;2023-02-28T16:28:46;15.40;26.60
3678;DHT22;1855;50.934;6.958;2023-02-28T16:31:14;15.30;25.80
3678;DHT22;1855;50.934;6.958;2023-02-28T16:33:42;14.80;26.80
3678;DHT22;1855;50.934;6.958;2023-02-28T16:36:14;14.50;26.50
3678;DHT22;1855;50.934;6.958;2023-02-28T16:38:41;14.10;26.50
3678;DHT22;1855;50.934;6.958;2023-02-28T16:41:12;13.60;27.70
3678;DHT22;1855;50.934;6.958;2023-02-28T16:43:42;13.30;28.60
3678;DHT22;1855;50.934;6.958;2023-02-28T16:46:11;12.30;29.00
3678;DHT22;1855;50.934;6.958;2023-02-28T16:48:38;11.50;31.10
3678;DHT22;1855;50.934;6.958;2023-02-28T16:51:05;10.70;31.80
3678;DHT22;1855;50.934;6.958;2023-02-28T16:53:32;9.80;33.30
3678;DHT22;1855;50.934;6.958;2023-02-28T16:56:00;9.00;34.90
3678;DHT22;1855;50.934;6.958;2023-02-28T16:58:29;8.40;35.80
3678;DHT22;1855;50.934;6.958;2023-02-28T17:00:56;7.90;37.60
3678;DHT22;1855;50.934;6.958;2023-02-28T17:03:24;7.60;37.80
3678;DHT22;1855;50.934;6.958;2023-02-28T17:05:51;7.30;39.30